sensor_id;sensor_type;location;lat;lon;timestamp;P1;durP1;ratioP1;P2;durP2;ratioP2
59972;SDS011;55298;-36.624;-64.282;2023-02-15T00:00:05;19.65;;;5.85;;
59972;SDS011;55298;-36.624;-64.282;2023-02-15T00:02:36;21.70;;;5.07;;
59972;SDS011;55298;-36.624;-64.282;2023-02-15T00:05:04;13.60;;;6.05;;
59972;SDS011;55298;-36.624;-64.282;2023-02-15T00:07:32;18.65;;;7.40;;
59972;SDS011;55298;-36.624;-64.282;2023-02-15T00:10:01;22.73;;;10.95;;
59972;SDS011;55298;-36.624;-64.282;2023-02-15T00:12:31;30.63;;;14.50;;
59972;SDS011;55298;-36.624;-64.282;2023-02-15T00:15:00;33.50;;;12.02;;
59972;SDS011;55298;-36.624;-64.282;2023-02-15T00:17:28;23.73;;;9.50;;
59972;SDS011;55298;-36.624;-64.282;2023-02-15T00:19:57;29.75;;;7.50;;
59972;SDS011;55298;-36.624;-64.282;2023-02-15T00:22:25;21.45;;;6.70;;
59972;SDS011;55298;-36.624;-64.282;2023-02-15T00:24:56;19.83;;;6.65;;
59972;SDS011;55298;-36.624;-64.282;2023-02-15T00:27:24;22.67;;;7.50;;
59972;SDS011;55298;-36.624;-64.282;2023-02-15T00:29:52;20.75;;;8.10;;
59972;SDS011;55298;-36.624;-64.282;2023-02-15T00:32:20;18.63;;;6.28;;
59972;SDS011;55298;-36.624;-64.282;2023-02-15T00:34:49;17.58;;;6.20;;
59972;SDS011;55298;-36.624;-64.282;2023-02-15T00:37:17;18.33;;;6.90;;
59972;SDS011;55298;-36.624;-64.282;2023-02-15T00:39:46;18.05;;;6.72;;
59972;SDS011;55298;-36.624;-64.282;2023-02-15T00:42:15;18.10;;;6.50;;
59972;SDS011;55298;-36.624;-64.282;2023-02-15T00:44:44;18.67;;;6.18;;
59972;SDS011;55298;-36.624;-64.282;2023-02-15T00:47:14;18.98;;;6.65;;
59972;SDS011;55298;-36.624;-64.282;2023-02-15T00:49:43;20.50;;;8.30;;
59972;SDS011;55298;-36.624;-64.282;2023-02-15T00:52:12;24.40;;;7.93;;
59972;SDS011;55298;-36.624;-64.282;2023-02-15T00:54:40;18.63;;;6.97;;
59972;SDS011;55298;-36.624;-64.282;2023-02-15T00:57:08;15.57;;;6.20;;
59972;SDS011;55298;-36.624;-64.282;2023-02-15T00:59:36;18.85;;;6.38;;
59972;SDS011;55298;-36.624;-64.282;2023-02-15T01:02:04;10.52;;;6.40;;
59972;SDS011;55298;-36.624;-64.282;2023-02-15T01:04:32;19.83;;;5.60;;
59972;SDS011;55298;-36.624;-64.282;2023-02-15T01:07:02;17.17;;;6.00;;
59972;SDS011;55298;-36.624;-64.282;2023-02-15T01:09:30;20.10;;;6.18;;
59972;SDS011;55298;-36.624;-64.282;2023-02-15T01:11:59;20.30;;;6.75;;
59972;SDS011;55298;-36.624;-64.282;2023-02-15T01:14:27;11.65;;;5.45;;
59972;SDS011;55298;-36.624;-64.282;2023-02-15T01:16:55;18.25;;;6.47;;
59972;SDS011;55298;-36.624;-64.282;2023-02-15T01:19:24;22.40;;;9.20;;
59972;SDS011;55298;-36.624;-64.282;2023-02-15T01:21:51;22.67;;;9.88;;
59972;SDS011;55298;-36.624;-64.282;2023-02-15T01:24:20;24.45;;;12.15;;
59972;SDS011;55298;-36.624;-64.282;2023-02-15T01:26:48;32.55;;;14.95;;
59972;SDS011;55298;-36.624;-64.282;2023-02-15T01:29:16;24.17;;;11.05;;
59972;SDS011;55298;-36.624;-64.282;2023-02-15T01:31:44;19.50;;;9.82;;
59972;SDS011;55298;-36.624;-64.282;2023-02-15T01:34:12;19.13;;;8.23;;
59972;SDS011;55298;-36.624;-64.282;2023-02-15T01:36:40;17.42;;;6.90;;
59972;SDS011;55298;-36.624;-64.282;2023-02-15T01:39:08;17.92;;;6.53;;
59972;SDS011;55298;-36.624;-64.282;2023-02-15T01:41:37;9.75;;;3.95;;
59972;SDS011;55298;-36.624;-64.282;2023-02-15T01:46:52;10.18;;;3.83;;
59972;SDS011;55298;-36.624;-64.282;2023-02-15T01:49:20;13.05;;;4.13;;
59972;SDS011;55298;-36.624;-64.282;2023-02-15T01:51:54;10.88;;;4.18;;
59972;SDS011;55298;-36.624;-64.282;2023-02-15T01:54:23;11.68;;;4.03;;
59972;SDS011;55298;-36.624;-64.282;2023-02-15T01:57:00;13.85;;;5.32;;
59972;SDS011;55298;-36.624;-64.282;2023-02-15T01:59:35;11.80;;;5.00;;
59972;SDS011;55298;-36.624;-64.282;2023-02-15T02:02:04;11.07;;;4.55;;
59972;SDS011;55298;-36.624;-64.282;2023-02-15T02:04:38;13.13;;;4.47;;
59972;SDS011;55298;-36.624;-64.282;2023-02-15T02:07:10;15.68;;;4.63;;
59972;SDS011;55298;-36.624;-64.282;2023-02-15T02:09:42;14.55;;;4.28;;
59972;SDS011;55298;-36.624;-64.282;2023-02-15T02:12:12;16.83;;;4.88;;
59972;SDS011;55298;-36.624;-64.282;2023-02-15T02:14:46;12.00;;;3.80;;
59972;SDS011;55298;-36.624;-64.282;2023-02-15T02:17:18;8.48;;;3.78;;
59972;SDS011;55298;-36.624;-64.282;2023-02-15T02:20:13;10.63;;;3.97;;
59972;SDS011;55298;-36.624;-64.282;2023-02-15T02:34:46;7.28;;;3.60;;
59972;SDS011;55298;-36.624;-64.282;2023-02-15T02:40:25;6.60;;;3.30;;
59972;SDS011;55298;-36.624;-64.282;2023-02-15T02:43:10;7.93;;;3.85;;
59972;SDS011;55298;-36.624;-64.282;2023-02-15T02:48:32;8.23;;;4.35;;
59972;SDS011;55298;-36.624;-64.282;2023-02-15T02:51:04;6.38;;;3.50;;
59972;SDS011;55298;-36.624;-64.282;2023-02-15T02:53:32;6.88;;;3.42;;
59972;SDS011;55298;-36.624;-64.282;2023-02-15T02:58:49;6.28;;;3.53;;
59972;SDS011;55298;-36.624;-64.282;2023-02-15T03:01:24;9.02;;;3.10;;
59972;SDS011;55298;-36.624;-64.282;2023-02-15T03:04:01;6.40;;;2.40;;
59972;SDS011;55298;-36.624;-64.282;2023-02-15T03:09:28;6.65;;;1.90;;
59972;SDS011;55298;-36.624;-64.282;2023-02-15T03:12:07;4.70;;;1.65;;
59972;SDS011;55298;-36.624;-64.282;2023-02-15T03:14:41;5.13;;;2.03;;
59972;SDS011;55298;-36.624;-64.282;2023-02-15T03:17:20;6.88;;;1.90;;
59972;SDS011;55298;-36.624;-64.282;2023-02-15T03:19:50;4.03;;;1.60;;
59972;SDS011;55298;-36.624;-64.282;2023-02-15T03:22:24;6.60;;;1.80;;
59972;SDS011;55298;-36.624;-64.282;2023-02-15T03:25:00;5.85;;;1.90;;
59972;SDS011;55298;-36.624;-64.282;2023-02-15T03:27:42;3.70;;;1.90;;
59972;SDS011;55298;-36.624;-64.282;2023-02-15T03:30:17;5.20;;;1.60;;
59972;SDS011;55298;-36.624;-64.282;2023-02-15T03:32:48;5.60;;;1.75;;
59972;SDS011;55298;-36.624;-64.282;2023-02-15T03:35:20;10.73;;;2.00;;
59972;SDS011;55298;-36.624;-64.282;2023-02-15T03:37:58;5.22;;;1.85;;
59972;SDS011;55298;-36.624;-64.282;2023-02-15T03:40:30;5.97;;;1.88;;
59972;SDS011;55298;-36.624;-64.282;2023-02-15T03:43:23;8.25;;;2.17;;
59972;SDS011;55298;-36.624;-64.282;2023-02-15T03:46:05;6.90;;;2.00;;
59972;SDS011;55298;-36.624;-64.282;2023-02-15T03:48:54;6.15;;;2.15;;
59972;SDS011;55298;-36.624;-64.282;2023-02-15T03:51:32;6.63;;;2.30;;
59972;SDS011;55298;-36.624;-64.282;2023-02-15T03:54:14;5.85;;;2.10;;
59972;SDS011;55298;-36.624;-64.282;2023-02-15T03:56:59;4.57;;;1.77;;
59972;SDS011;55298;-36.624;-64.282;2023-02-15T03:59:37;6.38;;;2.00;;
59972;SDS011;55298;-36.624;-64.282;2023-02-15T04:02:18;9.45;;;2.25;;
59972;SDS011;55298;-36.624;-64.282;2023-02-15T04:04:51;7.85;;;2.42;;
59972;SDS011;55298;-36.624;-64.282;2023-02-15T04:07:19;5.45;;;1.92;;
59972;SDS011;55298;-36.624;-64.282;2023-02-15T04:09:49;9.80;;;2.45;;
59972;SDS011;55298;-36.624;-64.282;2023-02-15T04:12:27;7.38;;;2.00;;
59972;SDS011;55298;-36.624;-64.282;2023-02-15T04:14:56;8.88;;;2.22;;
59972;SDS011;55298;-36.624;-64.282;2023-02-15T04:17:35;7.97;;;2.40;;
59972;SDS011;55298;-36.624;-64.282;2023-02-15T04:20:04;5.38;;;2.30;;
59972;SDS011;55298;-36.624;-64.282;2023-02-15T04:22:42;6.75;;;2.42;;
59972;SDS011;55298;-36.624;-64.282;2023-02-15T04:25:19;7.70;;;2.45;;
59972;SDS011;55298;-36.624;-64.282;2023-02-15T04:27:49;6.80;;;2.22;;
59972;SDS011;55298;-36.624;-64.282;2023-02-15T04:30:19;8.35;;;2.42;;
59972;SDS011;55298;-36.624;-64.282;2023-02-15T04:32:50;4.53;;;1.90;;
59972;SDS011;55298;-36.624;-64.282;2023-02-15T04:35:22;8.70;;;2.20;;
59972;SDS011;55298;-36.624;-64.282;2023-02-15T04:37:51;3.00;;;1.90;;
59972;SDS011;55298;-36.624;-64.282;2023-02-15T04:40:21;5.25;;;2.10;;
59972;SDS011;55298;-36.624;-64.282;2023-02-15T04:42:49;5.78;;;1.85;;
59972;SDS011;55298;-36.624;-64.282;2023-02-15T04:45:18;5.15;;;1.70;;
59972;SDS011;55298;-36.624;-64.282;2023-02-15T04:47:47;4.22;;;1.70;;
59972;SDS011;55298;-36.624;-64.282;2023-02-15T04:50:15;5.85;;;1.90;;
59972;SDS011;55298;-36.624;-64.282;2023-02-15T04:52:43;2.55;;;1.85;;
59972;SDS011;55298;-36.624;-64.282;2023-02-15T04:55:12;5.90;;;1.77;;
59972;SDS011;55298;-36.624;-64.282;2023-02-15T04:57:40;4.53;;;1.80;;
59972;SDS011;55298;-36.624;-64.282;2023-02-15T05:00:08;3.80;;;1.70;;
59972;SDS011;55298;-36.624;-64.282;2023-02-15T05:02:36;4.38;;;1.98;;
59972;SDS011;55298;-36.624;-64.282;2023-02-15T05:05:05;5.35;;;1.83;;
59972;SDS011;55298;-36.624;-64.282;2023-02-15T05:07:35;4.28;;;1.90;;
59972;SDS011;55298;-36.624;-64.282;2023-02-15T05:10:04;4.95;;;1.83;;
59972;SDS011;55298;-36.624;-64.282;2023-02-15T05:12:35;5.38;;;1.80;;
59972;SDS011;55298;-36.624;-64.282;2023-02-15T05:15:03;4.13;;;1.35;;
59972;SDS011;55298;-36.624;-64.282;2023-02-15T05:17:32;6.00;;;1.48;;
59972;SDS011;55298;-36.624;-64.282;2023-02-15T05:20:00;3.38;;;1.30;;
59972;SDS011;55298;-36.624;-64.282;2023-02-15T05:22:29;2.10;;;1.60;;
59972;SDS011;55298;-36.624;-64.282;2023-02-15T05:24:57;6.97;;;1.58;;
59972;SDS011;55298;-36.624;-64.282;2023-02-15T05:27:34;5.03;;;1.70;;
59972;SDS011;55298;-36.624;-64.282;2023-02-15T05:30:12;4.32;;;1.40;;
59972;SDS011;55298;-36.624;-64.282;2023-02-15T05:32:41;6.50;;;1.73;;
59972;SDS011;55298;-36.624;-64.282;2023-02-15T05:35:12;4.57;;;1.70;;
59972;SDS011;55298;-36.624;-64.282;2023-02-15T05:37:41;2.80;;;1.67;;
59972;SDS011;55298;-36.624;-64.282;2023-02-15T05:40:11;4.75;;;2.00;;
59972;SDS011;55298;-36.624;-64.282;2023-02-15T05:42:39;5.47;;;1.50;;
59972;SDS011;55298;-36.624;-64.282;2023-02-15T05:45:08;3.72;;;1.98;;
59972;SDS011;55298;-36.624;-64.282;2023-02-15T05:47:36;4.47;;;1.80;;
59972;SDS011;55298;-36.624;-64.282;2023-02-15T05:50:04;4.72;;;1.80;;
59972;SDS011;55298;-36.624;-64.282;2023-02-15T05:52:34;2.85;;;1.50;;
59972;SDS011;55298;-36.624;-64.282;2023-02-15T05:55:02;3.63;;;1.77;;
59972;SDS011;55298;-36.624;-64.282;2023-02-15T05:57:34;5.57;;;1.63;;
59972;SDS011;55298;-36.624;-64.282;2023-02-15T06:00:03;4.80;;;1.60;;
59972;SDS011;55298;-36.624;-64.282;2023-02-15T06:02:34;2.97;;;1.48;;
59972;SDS011;55298;-36.624;-64.282;2023-02-15T06:05:03;4.57;;;1.63;;
59972;SDS011;55298;-36.624;-64.282;2023-02-15T06:07:33;3.55;;;1.50;;
59972;SDS011;55298;-36.624;-64.282;2023-02-15T06:10:03;2.83;;;1.23;;
59972;SDS011;55298;-36.624;-64.282;2023-02-15T06:12:31;4.00;;;1.30;;
59972;SDS011;55298;-36.624;-64.282;2023-02-15T06:15:00;2.50;;;1.40;;
59972;SDS011;55298;-36.624;-64.282;2023-02-15T06:17:28;6.75;;;1.50;;
59972;SDS011;55298;-36.624;-64.282;2023-02-15T06:19:56;10.60;;;2.38;;
59972;SDS011;55298;-36.624;-64.282;2023-02-15T06:22:24;5.72;;;2.03;;
59972;SDS011;55298;-36.624;-64.282;2023-02-15T06:24:54;4.10;;;1.60;;
59972;SDS011;55298;-36.624;-64.282;2023-02-15T06:27:22;5.35;;;2.20;;
59972;SDS011;55298;-36.624;-64.282;2023-02-15T06:29:51;4.70;;;2.28;;
59972;SDS011;55298;-36.624;-64.282;2023-02-15T06:32:19;5.32;;;2.00;;
59972;SDS011;55298;-36.624;-64.282;2023-02-15T06:34:47;7.55;;;2.45;;
59972;SDS011;55298;-36.624;-64.282;2023-02-15T06:37:17;7.50;;;2.10;;
59972;SDS011;55298;-36.624;-64.282;2023-02-15T06:39:46;5.13;;;1.83;;
59972;SDS011;55298;-36.624;-64.282;2023-02-15T06:42:13;5.10;;;1.90;;
59972;SDS011;55298;-36.624;-64.282;2023-02-15T06:44:44;4.60;;;1.63;;
59972;SDS011;55298;-36.624;-64.282;2023-02-15T06:47:12;4.80;;;2.00;;
59972;SDS011;55298;-36.624;-64.282;2023-02-15T06:49:40;5.10;;;1.52;;
59972;SDS011;55298;-36.624;-64.282;2023-02-15T06:52:08;3.33;;;1.52;;
59972;SDS011;55298;-36.624;-64.282;2023-02-15T06:54:36;5.05;;;1.88;;
59972;SDS011;55298;-36.624;-64.282;2023-02-15T06:57:06;6.82;;;1.83;;
59972;SDS011;55298;-36.624;-64.282;2023-02-15T06:59:35;6.10;;;1.77;;
59972;SDS011;55298;-36.624;-64.282;2023-02-15T07:02:03;4.53;;;1.80;;
59972;SDS011;55298;-36.624;-64.282;2023-02-15T07:04:33;5.05;;;1.73;;
59972;SDS011;55298;-36.624;-64.282;2023-02-15T07:07:02;6.03;;;2.03;;
59972;SDS011;55298;-36.624;-64.282;2023-02-15T07:09:30;3.92;;;1.65;;
59972;SDS011;55298;-36.624;-64.282;2023-02-15T07:11:58;3.17;;;1.50;;
59972;SDS011;55298;-36.624;-64.282;2023-02-15T07:14:35;4.15;;;1.90;;
59972;SDS011;55298;-36.624;-64.282;2023-02-15T07:17:04;3.03;;;1.70;;
59972;SDS011;55298;-36.624;-64.282;2023-02-15T07:19:31;3.22;;;1.45;;
59972;SDS011;55298;-36.624;-64.282;2023-02-15T07:21:59;1.98;;;1.42;;
59972;SDS011;55298;-36.624;-64.282;2023-02-15T07:24:29;2.30;;;1.38;;
59972;SDS011;55298;-36.624;-64.282;2023-02-15T07:26:58;2.92;;;1.50;;
59972;SDS011;55298;-36.624;-64.282;2023-02-15T07:29:27;3.15;;;1.85;;
59972;SDS011;55298;-36.624;-64.282;2023-02-15T07:31:55;4.50;;;2.00;;
59972;SDS011;55298;-36.624;-64.282;2023-02-15T07:34:23;2.95;;;1.67;;
59972;SDS011;55298;-36.624;-64.282;2023-02-15T07:36:51;2.65;;;1.73;;
59972;SDS011;55298;-36.624;-64.282;2023-02-15T07:39:19;3.20;;;1.42;;
59972;SDS011;55298;-36.624;-64.282;2023-02-15T07:41:47;4.22;;;1.50;;
59972;SDS011;55298;-36.624;-64.282;2023-02-15T07:44:15;4.28;;;1.90;;
59972;SDS011;55298;-36.624;-64.282;2023-02-15T07:46:43;5.30;;;1.88;;
59972;SDS011;55298;-36.624;-64.282;2023-02-15T07:49:12;4.20;;;1.80;;
59972;SDS011;55298;-36.624;-64.282;2023-02-15T07:51:42;6.97;;;1.88;;
59972;SDS011;55298;-36.624;-64.282;2023-02-15T07:54:11;2.25;;;1.50;;
59972;SDS011;55298;-36.624;-64.282;2023-02-15T07:56:38;5.65;;;1.75;;
59972;SDS011;55298;-36.624;-64.282;2023-02-15T07:59:08;3.80;;;1.77;;
59972;SDS011;55298;-36.624;-64.282;2023-02-15T08:01:37;4.72;;;1.67;;
59972;SDS011;55298;-36.624;-64.282;2023-02-15T08:04:06;4.15;;;1.88;;
59972;SDS011;55298;-36.624;-64.282;2023-02-15T08:06:36;5.43;;;1.90;;
59972;SDS011;55298;-36.624;-64.282;2023-02-15T08:09:06;2.70;;;1.60;;
59972;SDS011;55298;-36.624;-64.282;2023-02-15T08:11:36;4.10;;;1.48;;
59972;SDS011;55298;-36.624;-64.282;2023-02-15T08:14:07;2.17;;;1.33;;
59972;SDS011;55298;-36.624;-64.282;2023-02-15T08:16:41;2.70;;;1.80;;
59972;SDS011;55298;-36.624;-64.282;2023-02-15T08:19:20;8.05;;;2.80;;
59972;SDS011;55298;-36.624;-64.282;2023-02-15T08:21:51;1.70;;;1.60;;
59972;SDS011;55298;-36.624;-64.282;2023-02-15T08:24:23;2.25;;;1.38;;
59972;SDS011;55298;-36.624;-64.282;2023-02-15T08:26:54;2.08;;;1.60;;
59972;SDS011;55298;-36.624;-64.282;2023-02-15T08:29:23;3.63;;;1.90;;
59972;SDS011;55298;-36.624;-64.282;2023-02-15T08:31:58;3.85;;;2.05;;
59972;SDS011;55298;-36.624;-64.282;2023-02-15T08:34:30;3.20;;;1.50;;
59972;SDS011;55298;-36.624;-64.282;2023-02-15T08:37:03;3.35;;;1.63;;
59972;SDS011;55298;-36.624;-64.282;2023-02-15T08:39:31;4.45;;;1.60;;
59972;SDS011;55298;-36.624;-64.282;2023-02-15T08:42:00;4.18;;;1.60;;
59972;SDS011;55298;-36.624;-64.282;2023-02-15T08:44:29;2.28;;;1.55;;
59972;SDS011;55298;-36.624;-64.282;2023-02-15T08:46:57;2.75;;;1.40;;
59972;SDS011;55298;-36.624;-64.282;2023-02-15T08:49:29;1.63;;;1.30;;
59972;SDS011;55298;-36.624;-64.282;2023-02-15T08:51:58;1.55;;;1.40;;
59972;SDS011;55298;-36.624;-64.282;2023-02-15T08:54:26;3.85;;;1.50;;
59972;SDS011;55298;-36.624;-64.282;2023-02-15T08:56:54;2.05;;;1.30;;
59972;SDS011;55298;-36.624;-64.282;2023-02-15T08:59:22;4.68;;;1.67;;
59972;SDS011;55298;-36.624;-64.282;2023-02-15T09:01:52;4.90;;;1.50;;
59972;SDS011;55298;-36.624;-64.282;2023-02-15T09:04:21;5.45;;;1.58;;
59972;SDS011;55298;-36.624;-64.282;2023-02-15T09:06:51;2.42;;;1.60;;
59972;SDS011;55298;-36.624;-64.282;2023-02-15T09:09:19;2.35;;;1.60;;
59972;SDS011;55298;-36.624;-64.282;2023-02-15T09:11:49;2.95;;;1.50;;
59972;SDS011;55298;-36.624;-64.282;2023-02-15T09:14:19;1.48;;;1.30;;
59972;SDS011;55298;-36.624;-64.282;2023-02-15T09:16:51;1.63;;;1.40;;
59972;SDS011;55298;-36.624;-64.282;2023-02-15T09:19:20;2.80;;;1.70;;
59972;SDS011;55298;-36.624;-64.282;2023-02-15T09:21:49;2.20;;;1.60;;
59972;SDS011;55298;-36.624;-64.282;2023-02-15T09:24:18;2.60;;;1.60;;
59972;SDS011;55298;-36.624;-64.282;2023-02-15T09:26:47;5.10;;;2.28;;
59972;SDS011;55298;-36.624;-64.282;2023-02-15T09:29:16;5.47;;;1.80;;
59972;SDS011;55298;-36.624;-64.282;2023-02-15T09:31:48;3.20;;;1.65;;
59972;SDS011;55298;-36.624;-64.282;2023-02-15T09:34:19;5.72;;;1.92;;
59972;SDS011;55298;-36.624;-64.282;2023-02-15T09:36:48;6.65;;;1.92;;
59972;SDS011;55298;-36.624;-64.282;2023-02-15T09:39:19;4.05;;;1.75;;
59972;SDS011;55298;-36.624;-64.282;2023-02-15T09:42:02;3.58;;;1.77;;
59972;SDS011;55298;-36.624;-64.282;2023-02-15T09:48:11;4.25;;;1.80;;
59972;SDS011;55298;-36.624;-64.282;2023-02-15T09:50:54;2.47;;;1.77;;
59972;SDS011;55298;-36.624;-64.282;2023-02-15T09:56:37;4.45;;;2.10;;
59972;SDS011;55298;-36.624;-64.282;2023-02-15T10:04:56;6.00;;;2.17;;
59972;SDS011;55298;-36.624;-64.282;2023-02-15T10:10:42;4.18;;;1.80;;
59972;SDS011;55298;-36.624;-64.282;2023-02-15T10:13:49;4.63;;;2.15;;
59972;SDS011;55298;-36.624;-64.282;2023-02-15T10:19:33;6.10;;;2.35;;
59972;SDS011;55298;-36.624;-64.282;2023-02-15T10:25:06;7.05;;;2.10;;
59972;SDS011;55298;-36.624;-64.282;2023-02-15T10:27:55;6.35;;;3.60;;
59972;SDS011;55298;-36.624;-64.282;2023-02-15T10:30:38;9.95;;;3.25;;
59972;SDS011;55298;-36.624;-64.282;2023-02-15T10:33:26;9.77;;;2.35;;
59972;SDS011;55298;-36.624;-64.282;2023-02-15T10:39:13;6.97;;;3.17;;
59972;SDS011;55298;-36.624;-64.282;2023-02-15T10:42:46;6.30;;;2.63;;
59972;SDS011;55298;-36.624;-64.282;2023-02-15T10:44:55;18.02;;;13.77;;
59972;SDS011;55298;-36.624;-64.282;2023-02-15T10:56:33;9.63;;;2.50;;
59972;SDS011;55298;-36.624;-64.282;2023-02-15T10:59:20;12.60;;;3.65;;
59972;SDS011;55298;-36.624;-64.282;2023-02-15T11:02:22;5.75;;;2.20;;
59972;SDS011;55298;-36.624;-64.282;2023-02-15T11:08:03;5.97;;;2.15;;
59972;SDS011;55298;-36.624;-64.282;2023-02-15T11:10:42;13.05;;;2.40;;
59972;SDS011;55298;-36.624;-64.282;2023-02-15T11:13:23;10.27;;;2.40;;
59972;SDS011;55298;-36.624;-64.282;2023-02-15T11:15:57;9.57;;;2.47;;
59972;SDS011;55298;-36.624;-64.282;2023-02-15T11:18:32;13.13;;;7.18;;
59972;SDS011;55298;-36.624;-64.282;2023-02-15T11:23:53;8.15;;;2.40;;
59972;SDS011;55298;-36.624;-64.282;2023-02-15T11:26:29;8.25;;;2.42;;
59972;SDS011;55298;-36.624;-64.282;2023-02-15T11:29:11;9.25;;;2.90;;
59972;SDS011;55298;-36.624;-64.282;2023-02-15T11:32:30;8.55;;;3.10;;
59972;SDS011;55298;-36.624;-64.282;2023-02-15T11:34:58;5.53;;;2.10;;
59972;SDS011;55298;-36.624;-64.282;2023-02-15T11:37:35;8.93;;;2.20;;
59972;SDS011;55298;-36.624;-64.282;2023-02-15T11:40:19;5.45;;;2.10;;
59972;SDS011;55298;-36.624;-64.282;2023-02-15T11:42:51;8.50;;;2.10;;
59972;SDS011;55298;-36.624;-64.282;2023-02-15T11:45:31;9.45;;;1.92;;
59972;SDS011;55298;-36.624;-64.282;2023-02-15T11:48:05;9.70;;;2.10;;
59972;SDS011;55298;-36.624;-64.282;2023-02-15T11:50:39;6.43;;;1.83;;
59972;SDS011;55298;-36.624;-64.282;2023-02-15T11:53:10;4.78;;;1.88;;
59972;SDS011;55298;-36.624;-64.282;2023-02-15T11:55:43;8.77;;;1.75;;
59972;SDS011;55298;-36.624;-64.282;2023-02-15T11:58:21;3.45;;;1.80;;
59972;SDS011;55298;-36.624;-64.282;2023-02-15T12:01:02;6.28;;;1.90;;
59972;SDS011;55298;-36.624;-64.282;2023-02-15T12:03:52;6.05;;;1.67;;
59972;SDS011;55298;-36.624;-64.282;2023-02-15T12:06:28;5.38;;;1.60;;
59972;SDS011;55298;-36.624;-64.282;2023-02-15T12:09:16;6.28;;;1.50;;
59972;SDS011;55298;-36.624;-64.282;2023-02-15T12:12:47;3.85;;;1.70;;
59972;SDS011;55298;-36.624;-64.282;2023-02-15T12:15:01;4.05;;;1.75;;
59972;SDS011;55298;-36.624;-64.282;2023-02-15T12:17:34;5.07;;;4.20;;
59972;SDS011;55298;-36.624;-64.282;2023-02-15T12:20:37;7.05;;;3.53;;
59972;SDS011;55298;-36.624;-64.282;2023-02-15T12:23:02;6.97;;;1.88;;
59972;SDS011;55298;-36.624;-64.282;2023-02-15T12:25:42;3.78;;;1.63;;
59972;SDS011;55298;-36.624;-64.282;2023-02-15T12:31:01;4.35;;;1.30;;
59972;SDS011;55298;-36.624;-64.282;2023-02-15T12:33:46;4.30;;;1.30;;
59972;SDS011;55298;-36.624;-64.282;2023-02-15T12:36:19;3.25;;;1.10;;
59972;SDS011;55298;-36.624;-64.282;2023-02-15T12:42:01;3.90;;;1.20;;
59972;SDS011;55298;-36.624;-64.282;2023-02-15T12:44:36;2.25;;;1.00;;
59972;SDS011;55298;-36.624;-64.282;2023-02-15T12:47:05;1.45;;;0.95;;
59972;SDS011;55298;-36.624;-64.282;2023-02-15T12:50:03;4.05;;;1.48;;
59972;SDS011;55298;-36.624;-64.282;2023-02-15T12:53:05;2.15;;;1.08;;
59972;SDS011;55298;-36.624;-64.282;2023-02-15T12:55:57;1.95;;;1.20;;
59972;SDS011;55298;-36.624;-64.282;2023-02-15T12:58:29;2.55;;;1.20;;
59972;SDS011;55298;-36.624;-64.282;2023-02-15T13:01:22;2.38;;;1.20;;
59972;SDS011;55298;-36.624;-64.282;2023-02-15T13:06:36;5.70;;;1.30;;
59972;SDS011;55298;-36.624;-64.282;2023-02-15T13:09:20;3.67;;;1.52;;
59972;SDS011;55298;-36.624;-64.282;2023-02-15T13:14:43;4.07;;;1.60;;
59972;SDS011;55298;-36.624;-64.282;2023-02-15T13:17:38;2.05;;;1.80;;
59972;SDS011;55298;-36.624;-64.282;2023-02-15T13:20:16;8.90;;;2.00;;
59972;SDS011;55298;-36.624;-64.282;2023-02-15T13:22:50;2.92;;;1.33;;
59972;SDS011;55298;-36.624;-64.282;2023-02-15T13:25:28;10.18;;;2.67;;
59972;SDS011;55298;-36.624;-64.282;2023-02-15T13:28:06;2.25;;;2.05;;
59972;SDS011;55298;-36.624;-64.282;2023-02-15T13:30:42;3.50;;;1.90;;
59972;SDS011;55298;-36.624;-64.282;2023-02-15T13:35:59;1.38;;;1.00;;
59972;SDS011;55298;-36.624;-64.282;2023-02-15T13:41:17;1.00;;;0.90;;
59972;SDS011;55298;-36.624;-64.282;2023-02-15T13:44:03;6.15;;;1.50;;
59972;SDS011;55298;-36.624;-64.282;2023-02-15T13:46:51;2.05;;;1.15;;
59972;SDS011;55298;-36.624;-64.282;2023-02-15T13:50:06;5.60;;;0.90;;
59972;SDS011;55298;-36.624;-64.282;2023-02-15T13:52:57;2.13;;;0.88;;
59972;SDS011;55298;-36.624;-64.282;2023-02-15T13:55:43;5.28;;;4.78;;
59972;SDS011;55298;-36.624;-64.282;2023-02-15T13:58:45;2.63;;;1.50;;
59972;SDS011;55298;-36.624;-64.282;2023-02-15T14:01:43;1.13;;;0.90;;
59972;SDS011;55298;-36.624;-64.282;2023-02-15T14:07:27;2.28;;;1.23;;
59972;SDS011;55298;-36.624;-64.282;2023-02-15T14:10:29;4.00;;;1.60;;
59972;SDS011;55298;-36.624;-64.282;2023-02-15T14:16:20;4.60;;;1.33;;
59972;SDS011;55298;-36.624;-64.282;2023-02-15T14:19:28;3.70;;;1.10;;
59972;SDS011;55298;-36.624;-64.282;2023-02-15T14:22:22;2.35;;;1.00;;
59972;SDS011;55298;-36.624;-64.282;2023-02-15T14:30:49;4.10;;;1.38;;
59972;SDS011;55298;-36.624;-64.282;2023-02-15T14:33:37;4.83;;;1.10;;
59972;SDS011;55298;-36.624;-64.282;2023-02-15T14:36:10;3.50;;;1.13;;
59972;SDS011;55298;-36.624;-64.282;2023-02-15T14:41:53;3.00;;;1.20;;
59972;SDS011;55298;-36.624;-64.282;2023-02-15T14:44:33;4.38;;;1.55;;
59972;SDS011;55298;-36.624;-64.282;2023-02-15T14:47:09;2.40;;;1.73;;
59972;SDS011;55298;-36.624;-64.282;2023-02-15T14:49:48;2.08;;;1.10;;
59972;SDS011;55298;-36.624;-64.282;2023-02-15T14:52:17;2.63;;;1.00;;
59972;SDS011;55298;-36.624;-64.282;2023-02-15T14:54:52;2.78;;;1.00;;
59972;SDS011;55298;-36.624;-64.282;2023-02-15T14:57:25;3.22;;;1.80;;
59972;SDS011;55298;-36.624;-64.282;2023-02-15T14:59:56;3.03;;;2.63;;
59972;SDS011;55298;-36.624;-64.282;2023-02-15T15:02:41;3.55;;;1.10;;
59972;SDS011;55298;-36.624;-64.282;2023-02-15T15:05:17;2.45;;;0.80;;
59972;SDS011;55298;-36.624;-64.282;2023-02-15T15:07:52;2.72;;;0.80;;
59972;SDS011;55298;-36.624;-64.282;2023-02-15T15:10:33;1.98;;;1.00;;
59972;SDS011;55298;-36.624;-64.282;2023-02-15T15:15:54;1.55;;;0.70;;
59972;SDS011;55298;-36.624;-64.282;2023-02-15T15:18:51;2.80;;;0.90;;
59972;SDS011;55298;-36.624;-64.282;2023-02-15T15:29:47;2.45;;;1.30;;
59972;SDS011;55298;-36.624;-64.282;2023-02-15T15:32:17;2.67;;;2.47;;
59972;SDS011;55298;-36.624;-64.282;2023-02-15T15:34:57;2.83;;;1.77;;
59972;SDS011;55298;-36.624;-64.282;2023-02-15T15:49:14;2.55;;;1.30;;
59972;SDS011;55298;-36.624;-64.282;2023-02-15T15:51:46;2.33;;;0.90;;
59972;SDS011;55298;-36.624;-64.282;2023-02-15T15:54:21;3.45;;;1.00;;
59972;SDS011;55298;-36.624;-64.282;2023-02-15T15:56:53;2.10;;;1.10;;
59972;SDS011;55298;-36.624;-64.282;2023-02-15T15:59:28;1.95;;;1.00;;
59972;SDS011;55298;-36.624;-64.282;2023-02-15T16:02:06;5.25;;;0.90;;
59972;SDS011;55298;-36.624;-64.282;2023-02-15T16:04:41;2.22;;;1.10;;
59972;SDS011;55298;-36.624;-64.282;2023-02-15T16:07:24;3.42;;;1.20;;
59972;SDS011;55298;-36.624;-64.282;2023-02-15T16:10:00;3.10;;;2.80;;
59972;SDS011;55298;-36.624;-64.282;2023-02-15T16:12:34;2.97;;;1.65;;
59972;SDS011;55298;-36.624;-64.282;2023-02-15T16:15:13;4.85;;;1.48;;
59972;SDS011;55298;-36.624;-64.282;2023-02-15T16:17:44;2.28;;;1.10;;
59972;SDS011;55298;-36.624;-64.282;2023-02-15T16:20:17;4.43;;;1.45;;
59972;SDS011;55298;-36.624;-64.282;2023-02-15T16:22:53;5.00;;;1.10;;
59972;SDS011;55298;-36.624;-64.282;2023-02-15T16:25:45;2.80;;;1.42;;
59972;SDS011;55298;-36.624;-64.282;2023-02-15T16:28:21;2.95;;;1.00;;
59972;SDS011;55298;-36.624;-64.282;2023-02-15T16:33:40;3.20;;;0.90;;
59972;SDS011;55298;-36.624;-64.282;2023-02-15T16:36:22;1.05;;;0.93;;
59972;SDS011;55298;-36.624;-64.282;2023-02-15T16:39:06;1.67;;;1.10;;
59972;SDS011;55298;-36.624;-64.282;2023-02-15T16:41:39;1.42;;;1.20;;
59972;SDS011;55298;-36.624;-64.282;2023-02-15T16:44:14;2.33;;;1.00;;
59972;SDS011;55298;-36.624;-64.282;2023-02-15T16:49:20;6.38;;;5.55;;
59972;SDS011;55298;-36.624;-64.282;2023-02-15T16:52:04;3.58;;;1.58;;